Merion Station, PA (19066)

2:18 PM EDT on August 24, 2016 (GMT -0400)
APRSWXNET | | Change Station

Elev 246 ft 40.02 °N, 75.23 °W | Updated 20 minutes ago

Scattered Clouds
Scattered Clouds
85 °F
Feels Like 86 °F
N
0
Wind Variable Wind from SW
Gusts 2.0 mph

Today
High -- | Low -- °F
--% Chance of Precip.
Yesterday
High -- | Low -- °F
Precip. -- in
Pressure 30.25 in
Visibility 10.0 miles
Clouds Scattered Clouds 5000 ft
Scattered Clouds 28000 ft
Heat Index 86 °F
Dew Point 64 °F
Humidity 49%
Rainfall in
Snow Depth Not available.
6:21 AM 7:44 PM
Waning Gibbous, 54% visible
METAR KPHL 241754Z 28007KT 10SM SCT050 SCT280 28/16 A3025 RMK AO2 SLP242 T02830156 10289 20217 58016
Pressure 30.25 in
Visibility 10.0 miles
Clouds Scattered Clouds 5000 ft
Scattered Clouds 28000 ft
Heat Index 86 °F
Dew Point 64 °F
Humidity 49%
Rainfall in
Snow Depth Not available.
6:21 AM 7:44 PM
Waning Gibbous, 54% visible
METAR KPHL 241754Z 28007KT 10SM SCT050 SCT280 28/16 A3025 RMK AO2 SLP242 T02830156 10289 20217 58016

10-Day Weather Forecast

Almanac

Astronomy

Aug. 24, 2016 Rise Set
Actual Time
Civil Twilight
Nautical Twilight
Astronomical Twilight
Moon
Length of Visible Light
Length of Day
Tomorrow will be .
, % of the Moon is Illuminated

Today's Extremes

State Highs State Lows

Community

WunderPhotos

Upload Photos

1,934,664 photos uploaded!

WunderBlog® & News

Nearby

Air Quality

  Air Quality AQ Index Pollutant
Not available.

Snow Depth

Station Depth Elevation

Earthquake Activity

City Distance Mag. Time & Date
Minimum magnitude displayed is 2.5.

Coastal Water Temperatures

Place Temperature

Stations

Nearby Weather Stations

Station Location Temp. Windchill Dew Point Humidity Wind Precip. Elev Updated Type
                   

Watches & Warnings

There are currently no watches in effect.